X  Close Metar Aviation Weather Data     KMLB Melbourne Orlando International Airport
Temperature
64°F Temperature
63°F Dewpoint
94% Humidity



Wind
7 MPH
11 KM/H
3 M/S
6 KTS



270°
West
Current Conditions

Clear Clear
Pressure 1010.52 (hPa) - 29.84 (inHg)
Visibility 9.9 (mile) - 16 (km)
Airport
Airport-code KMLB

Location: Melbourne Orlando International Airport
Distance: 4 (mi)

Metar:
KMLB 270653Z AUTO 27006KT 10SM CLR 18/17 A2984 RMK AO2 SLP105 T01830172

Time: 27-10-2021 2:53 am EDT